Time,TemperatureF,DewpointF,PressureIn,WindDirection,WindDirectionDegrees,WindSpeedMPH,WindSpeedGustMPH,Humidity,HourlyPrecipIn,Conditions,Clouds,dailyrainin,SoftwareType,DateUTC
2013-02-28 00:04:00,35.5,35.2,29.52,NW,306,0.0,0.0,99,0.00,,,0.01,Wunderground v.1.15,2013-02-28 05:04:00,
2013-02-28 00:09:00,35.5,35.2,29.52,NNW,327,0.0,0.0,99,0.00,,,0.01,Wunderground v.1.15,2013-02-28 05:09:00,
2013-02-28 00:19:00,35.5,35.2,29.52,NNW,327,0.0,0.0,99,0.00,,,0.01,Wunderground v.1.15,2013-02-28 05:19:00,
2013-02-28 00:24:00,35.5,35.2,29.52,NNW,327,0.0,0.0,99,0.00,,,0.02,Wunderground v.1.15,2013-02-28 05:24:00,
2013-02-28 00:29:00,35.5,35.2,29.52,NNW,327,0.0,0.0,99,0.00,,,0.02,Wunderground v.1.15,2013-02-28 05:29:00,
2013-02-28 00:39:00,35.2,34.9,29.52,NNW,330,0.0,0.0,99,0.04,,,0.03,Wunderground v.1.15,2013-02-28 05:39:00,
2013-02-28 00:49:00,34.6,34.3,29.52,NE,46,0.0,0.0,99,0.04,,,0.03,Wunderground v.1.15,2013-02-28 05:49:00,
2013-02-28 00:54:00,34.3,34.0,29.52,NE,41,0.0,0.0,99,0.00,,,0.03,Wunderground v.1.15,2013-02-28 05:54:00,
2013-02-28 01:04:00,33.8,33.5,29.52,NW,317,0.0,0.0,99,0.00,,,0.03,Wunderground v.1.15,2013-02-28 06:04:00,
2013-02-28 01:14:00,33.5,33.2,29.52,NNW,329,0.0,0.0,99,0.00,,,0.03,Wunderground v.1.15,2013-02-28 06:14:00,
2013-02-28 01:24:00,33.4,33.1,29.52,NNW,329,0.0,0.0,99,0.00,,,0.04,Wunderground v.1.15,2013-02-28 06:24:00,
2013-02-28 01:29:00,33.4,33.1,29.52,NNW,329,0.0,0.0,99,0.00,,,0.04,Wunderground v.1.15,2013-02-28 06:29:00,
2013-02-28 01:39:00,33.5,33.2,29.52,NNW,329,0.0,0.0,99,0.00,,,0.04,Wunderground v.1.15,2013-02-28 06:39:00,
2013-02-28 01:49:00,33.7,33.4,29.51,NNW,329,0.0,0.0,99,0.00,,,0.04,Wunderground v.1.15,2013-02-28 06:49:00,
2013-02-28 01:59:00,33.7,33.4,29.51,NW,319,0.0,0.0,99,0.00,,,0.05,Wunderground v.1.15,2013-02-28 06:59:00,
2013-02-28 02:04:00,33.7,33.4,29.51,NNW,344,0.0,0.0,99,0.00,,,0.05,Wunderground v.1.15,2013-02-28 07:04:00,
2013-02-28 02:14:00,33.7,33.4,29.51,North,360,0.0,0.0,99,0.00,,,0.05,Wunderground v.1.15,2013-02-28 07:14:00,
2013-02-28 02:19:00,33.5,33.2,29.51,NNW,340,0.0,0.0,99,0.00,,,0.05,Wunderground v.1.15,2013-02-28 07:19:00,
2013-02-28 02:29:00,33.4,33.1,29.51,NNW,340,0.0,0.0,99,0.00,,,0.05,Wunderground v.1.15,2013-02-28 07:29:00,
2013-02-28 02:39:00,33.4,33.1,29.51,NNW,340,0.0,0.0,99,0.00,,,0.05,Wunderground v.1.15,2013-02-28 07:39:00,
2013-02-28 02:49:00,33.2,33.0,29.51,NNW,340,0.0,0.0,99,0.00,,,0.05,Wunderground v.1.15,2013-02-28 07:49:00,
2013-02-28 02:59:00,33.2,33.0,29.51,NNW,340,0.0,0.0,99,0.00,,,0.05,Wunderground v.1.15,2013-02-28 07:59:00,
2013-02-28 03:04:00,33.1,32.9,29.51,NNW,340,0.0,0.0,99,0.00,,,0.05,Wunderground v.1.15,2013-02-28 08:04:00,
2013-02-28 03:14:00,33.1,32.9,29.51,NNW,340,0.0,0.0,99,0.00,,,0.05,Wunderground v.1.15,2013-02-28 08:14:00,
2013-02-28 03:24:00,32.9,32.7,29.50,NNW,340,0.0,0.0,99,0.00,,,0.05,Wunderground v.1.15,2013-02-28 08:24:00,
2013-02-28 03:34:00,32.9,32.7,29.50,NNW,340,0.0,0.0,99,0.00,,,0.05,Wunderground v.1.15,2013-02-28 08:34:00,
2013-02-28 03:44:00,32.8,32.6,29.50,NNW,340,0.0,0.0,99,0.00,,,0.05,Wunderground v.1.15,2013-02-28 08:44:00,
2013-02-28 03:54:00,32.7,32.5,29.50,NNW,340,0.0,0.0,99,0.00,,,0.05,Wunderground v.1.15,2013-02-28 08:54:00,
2013-02-28 04:04:00,32.7,32.5,29.50,NNW,340,0.0,0.0,99,0.00,,,0.05,Wunderground v.1.15,2013-02-28 09:04:00,
2013-02-28 04:14:00,32.5,32.3,29.50,NNW,340,0.0,0.0,99,0.00,,,0.05,Wunderground v.1.15,2013-02-28 09:14:00,
2013-02-28 04:24:00,32.5,32.3,29.50,NNW,340,0.0,0.0,99,0.00,,,0.05,Wunderground v.1.15,2013-02-28 09:24:00,
2013-02-28 04:34:00,32.5,32.3,29.50,NNW,340,0.0,0.0,99,0.00,,,0.05,Wunderground v.1.15,2013-02-28 09:34:00,
2013-02-28 04:44:00,32.5,32.3,29.50,NNW,340,0.0,0.0,99,0.00,,,0.05,Wunderground v.1.15,2013-02-28 09:44:00,
2013-02-28 04:53:00,32.4,32.2,29.51,NNW,340,0.0,0.0,99,0.00,,,0.05,Wunderground v.1.15,2013-02-28 09:53:00,
2013-02-28 04:59:00,32.4,32.2,29.51,NNW,340,0.0,0.0,99,0.00,,,0.05,Wunderground v.1.15,2013-02-28 09:59:00,
2013-02-28 05:04:00,32.4,32.2,29.51,NNW,340,0.0,0.0,99,0.00,,,0.05,Wunderground v.1.15,2013-02-28 10:04:00,
2013-02-28 05:14:00,32.5,32.3,29.51,NNW,340,0.0,0.0,99,0.00,,,0.05,Wunderground v.1.15,2013-02-28 10:14:00,
2013-02-28 05:23:00,32.5,32.3,29.51,NNW,340,0.0,0.0,99,0.00,,,0.05,Wunderground v.1.15,2013-02-28 10:23:00,
2013-02-28 05:33:00,32.5,32.3,29.51,NNW,340,0.0,0.0,99,0.00,,,0.05,Wunderground v.1.15,2013-02-28 10:33:00,
2013-02-28 05:39:00,32.7,32.5,29.51,NNW,340,0.0,0.0,99,0.00,,,0.05,Wunderground v.1.15,2013-02-28 10:39:00,
2013-02-28 05:49:00,32.7,32.5,29.51,NNW,340,0.0,0.0,99,0.00,,,0.05,Wunderground v.1.15,2013-02-28 10:49:00,
2013-02-28 05:58:00,32.7,32.5,29.51,NNW,340,0.0,0.0,99,0.00,,,0.05,Wunderground v.1.15,2013-02-28 10:58:00,
2013-02-28 06:04:00,32.7,32.5,29.51,NNW,340,0.0,0.0,99,0.00,,,0.05,Wunderground v.1.15,2013-02-28 11:04:00,
2013-02-28 06:13:00,32.7,32.5,29.51,NNW,340,0.0,0.0,99,0.00,,,0.05,Wunderground v.1.15,2013-02-28 11:13:00,
2013-02-28 06:18:00,32.7,32.5,29.52,NNW,340,0.0,0.0,99,0.00,,,0.05,Wunderground v.1.15,2013-02-28 11:18:00,
2013-02-28 06:29:00,32.7,32.5,29.52,NNW,340,0.0,0.0,99,0.00,,,0.05,Wunderground v.1.15,2013-02-28 11:29:00,
2013-02-28 06:38:00,32.7,32.5,29.52,NNW,340,0.0,0.0,99,0.00,,,0.05,Wunderground v.1.15,2013-02-28 11:38:00,
2013-02-28 06:48:00,32.7,32.5,29.52,NNW,340,0.0,0.0,99,0.00,,,0.05,Wunderground v.1.15,2013-02-28 11:48:00,
2013-02-28 06:58:00,32.8,32.6,29.52,NNW,340,0.0,0.0,99,0.00,,,0.05,Wunderground v.1.15,2013-02-28 11:58:00,
2013-02-28 07:04:00,32.9,32.7,29.52,NNW,340,0.0,0.0,99,0.00,,,0.05,Wunderground v.1.15,2013-02-28 12:04:00,
2013-02-28 07:13:00,32.9,32.7,29.52,WSW,238,0.0,0.0,99,0.00,,,0.05,Wunderground v.1.15,2013-02-28 12:13:00,
2013-02-28 07:23:00,32.9,32.7,29.52,WSW,243,0.0,0.0,99,0.00,,,0.05,Wunderground v.1.15,2013-02-28 12:23:00,
2013-02-28 07:29:00,32.8,32.6,29.52,SW,232,0.0,0.0,99,0.00,,,0.05,Wunderground v.1.15,2013-02-28 12:29:00,
2013-02-28 07:38:00,32.8,32.6,29.52,WSW,237,0.0,0.0,99,0.00,,,0.05,Wunderground v.1.15,2013-02-28 12:38:00,
2013-02-28 07:48:00,32.7,32.5,29.52,WSW,242,0.0,0.0,99,0.00,,,0.05,Wunderground v.1.15,2013-02-28 12:48:00,
2013-02-28 07:58:00,32.7,32.5,29.52,WSW,242,0.0,0.0,99,0.00,,,0.05,Wunderground v.1.15,2013-02-28 12:58:00,
2013-02-28 08:04:00,32.7,32.5,29.53,WSW,243,0.0,0.0,99,0.00,,,0.05,Wunderground v.1.15,2013-02-28 13:04:00,
2013-02-28 08:13:00,32.7,32.5,29.53,WSW,243,0.0,0.0,99,0.00,,,0.05,Wunderground v.1.15,2013-02-28 13:13:00,
2013-02-28 08:23:00,32.7,32.5,29.53,WSW,242,0.0,0.0,99,0.00,,,0.05,Wunderground v.1.15,2013-02-28 13:23:00,
2013-02-28 08:33:00,32.7,32.5,29.53,WSW,241,0.0,0.0,99,0.00,,,0.05,Wunderground v.1.15,2013-02-28 13:33:00,
2013-02-28 08:39:00,32.7,32.5,29.53,WSW,258,0.0,0.0,99,0.00,,,0.05,Wunderground v.1.15,2013-02-28 13:39:00,
2013-02-28 08:48:00,32.7,32.5,29.53,West,267,0.0,0.0,99,0.00,,,0.05,Wunderground v.1.15,2013-02-28 13:48:00,
2013-02-28 08:58:00,32.8,32.6,29.53,West,267,0.0,0.0,99,0.00,,,0.05,Wunderground v.1.15,2013-02-28 13:58:00,
2013-02-28 09:03:00,32.8,32.6,29.53,West,267,0.0,0.0,99,0.00,,,0.05,Wunderground v.1.15,2013-02-28 14:03:00,
2013-02-28 09:13:00,32.8,32.6,29.53,West,267,0.0,0.0,99,0.00,,,0.05,Wunderground v.1.15,2013-02-28 14:13:00,
2013-02-28 09:23:00,32.8,32.6,29.53,West,267,0.0,0.0,99,0.00,,,0.06,Wunderground v.1.15,2013-02-28 14:23:00,
2013-02-28 09:33:00,32.8,32.6,29.53,West,268,0.0,0.0,99,0.05,,,0.07,Wunderground v.1.15,2013-02-28 14:33:00,
2013-02-28 09:38:00,32.9,32.7,29.53,WNW,296,0.0,0.0,99,0.05,,,0.07,Wunderground v.1.15,2013-02-28 14:38:00,
2013-02-28 09:48:00,32.9,32.7,29.53,NNW,346,0.0,0.0,99,0.00,,,0.07,Wunderground v.1.15,2013-02-28 14:48:00,
2013-02-28 09:53:00,32.9,32.7,29.53,NNW,346,0.0,0.0,99,0.00,,,0.08,Wunderground v.1.15,2013-02-28 14:53:00,
2013-02-28 10:03:00,32.8,32.6,29.53,NNW,346,0.0,0.0,99,0.05,,,0.09,Wunderground v.1.15,2013-02-28 15:03:00,
2013-02-28 10:13:00,33.1,32.9,29.53,NNW,346,0.0,0.0,99,0.05,,,0.09,Wunderground v.1.15,2013-02-28 15:13:00,
2013-02-28 10:23:00,32.8,32.6,29.53,NNW,346,0.0,0.0,99,0.00,,,0.09,Wunderground v.1.15,2013-02-28 15:23:00,
2013-02-28 10:28:00,32.9,32.7,29.53,NNW,346,0.0,0.0,99,0.00,,,0.09,Wunderground v.1.15,2013-02-28 15:28:00,
2013-02-28 10:38:00,32.8,32.6,29.53,NNW,346,0.0,0.0,99,0.00,,,0.10,Wunderground v.1.15,2013-02-28 15:38:00,
2013-02-28 10:48:00,32.9,32.7,29.53,NNW,346,0.0,0.0,99,0.00,,,0.10,Wunderground v.1.15,2013-02-28 15:48:00,
2013-02-28 10:54:00,32.9,32.7,29.53,NNW,346,0.0,0.0,99,0.00,,,0.11,Wunderground v.1.15,2013-02-28 15:54:00,
2013-02-28 11:04:00,33.4,33.1,29.53,NNW,346,0.0,0.0,99,0.00,,,0.11,Wunderground v.1.15,2013-02-28 16:04:00,
2013-02-28 11:14:00,33.4,33.1,29.53,NNW,346,0.0,0.0,99,0.00,,,0.11,Wunderground v.1.15,2013-02-28 16:14:00,
2013-02-28 11:24:00,33.7,33.4,29.53,NNW,346,0.0,0.0,99,0.09,,,0.13,Wunderground v.1.15,2013-02-28 16:24:00,
2013-02-28 11:34:00,34.3,34.0,29.53,NNW,346,0.0,0.0,99,0.08,,,0.14,Wunderground v.1.15,2013-02-28 16:34:00,
2013-02-28 11:44:00,34.3,34.0,29.53,NNW,346,0.0,0.0,99,0.07,,,0.16,Wunderground v.1.15,2013-02-28 16:44:00,
2013-02-28 11:54:00,34.7,34.4,29.53,NNW,346,0.0,0.0,99,0.11,,,0.17,Wunderground v.1.15,2013-02-28 16:54:00,
2013-02-28 12:04:00,35.0,34.7,29.53,NNW,346,0.0,0.0,99,0.06,,,0.18,Wunderground v.1.15,2013-02-28 17:04:00,
2013-02-28 12:14:00,35.3,35.0,29.53,NNW,346,0.0,0.0,99,0.07,,,0.19,Wunderground v.1.15,2013-02-28 17:14:00,
2013-02-28 12:24:00,35.5,35.2,29.53,NNW,346,0.0,0.0,99,0.04,,,0.20,Wunderground v.1.15,2013-02-28 17:24:00,
2013-02-28 12:29:00,35.6,35.3,29.53,NNW,346,0.0,0.0,99,0.08,,,0.21,Wunderground v.1.15,2013-02-28 17:29:00,
2013-02-28 12:34:00,35.8,35.5,29.52,NNW,346,0.0,0.0,99,0.08,,,0.21,Wunderground v.1.15,2013-02-28 17:34:00,
2013-02-28 12:44:00,35.9,35.4,29.52,NNW,346,0.0,0.0,98,0.05,,,0.22,Wunderground v.1.15,2013-02-28 17:44:00,
2013-02-28 12:54:00,36.3,35.8,29.51,NNW,346,0.0,0.0,98,0.07,,,0.23,Wunderground v.1.15,2013-02-28 17:54:00,
2013-02-28 13:05:00,36.9,36.1,29.51,NNW,346,0.0,0.0,97,0.05,,,0.23,Wunderground v.1.15,2013-02-28 18:05:00,
2013-02-28 13:14:00,36.3,35.3,29.51,WSW,240,0.0,0.0,96,0.08,,,0.24,Wunderground v.1.15,2013-02-28 18:14:00,
2013-02-28 13:24:00,35.5,34.2,29.51,West,263,0.0,0.0,95,0.06,,,0.25,Wunderground v.1.15,2013-02-28 18:24:00,
2013-02-28 13:34:00,36.0,34.4,29.51,NNW,331,0.0,0.0,94,0.06,,,0.26,Wunderground v.1.15,2013-02-28 18:34:00,
2013-02-28 13:44:00,36.8,35.0,29.51,WSW,258,0.0,0.0,93,0.04,,,0.27,Wunderground v.1.15,2013-02-28 18:44:00,
2013-02-28 13:54:00,37.5,34.6,29.51,NW,323,0.0,0.0,89,0.05,,,0.28,Wunderground v.1.15,2013-02-28 18:54:00,
2013-02-28 14:04:00,37.9,33.5,29.51,North,351,0.0,0.0,84,0.04,,,0.28,Wunderground v.1.15,2013-02-28 19:04:00,
2013-02-28 14:14:00,38.0,33.3,29.51,West,265,0.0,0.0,83,0.00,,,0.28,Wunderground v.1.15,2013-02-28 19:14:00,
2013-02-28 14:19:00,38.8,33.2,29.51,NE,41,0.0,0.0,80,0.00,,,0.28,Wunderground v.1.15,2013-02-28 19:19:00,
2013-02-28 14:29:00,38.0,32.4,29.51,NNW,332,0.0,0.0,80,0.00,,,0.28,Wunderground v.1.15,2013-02-28 19:29:00,
2013-02-28 14:39:00,37.8,32.2,29.51,NE,41,0.0,0.0,80,0.00,,,0.28,Wunderground v.1.15,2013-02-28 19:39:00,
2013-02-28 14:44:00,37.3,32.0,29.51,NNW,328,0.0,0.0,81,0.00,,,0.28,Wunderground v.1.15,2013-02-28 19:44:00,
2013-02-28 14:54:00,37.0,32.0,29.51,NE,49,0.0,0.0,82,0.00,,,0.28,Wunderground v.1.15,2013-02-28 19:54:00,
2013-02-28 15:04:00,36.3,32.5,29.52,NE,35,0.0,0.0,86,0.00,,,0.28,Wunderground v.1.15,2013-02-28 20:04:00,
2013-02-28 15:14:00,36.0,32.2,29.52,NE,43,0.0,0.0,86,0.00,,,0.28,Wunderground v.1.15,2013-02-28 20:14:00,
2013-02-28 15:19:00,35.8,32.3,29.53,NE,47,0.0,0.0,87,0.00,,,0.28,Wunderground v.1.15,2013-02-28 20:19:00,
2013-02-28 15:29:00,35.6,32.4,29.53,NE,44,0.0,0.0,88,0.00,,,0.28,Wunderground v.1.15,2013-02-28 20:29:00,
2013-02-28 15:39:00,34.9,32.0,29.53,NE,45,0.0,0.0,89,0.00,,,0.28,Wunderground v.1.15,2013-02-28 20:39:00,
2013-02-28 15:44:00,34.9,32.0,29.53,NE,45,0.0,0.0,89,0.00,,,0.28,Wunderground v.1.15,2013-02-28 20:44:00,
2013-02-28 15:54:00,34.7,31.8,29.53,NE,45,0.0,0.0,89,0.00,,,0.28,Wunderground v.1.15,2013-02-28 20:54:00,
2013-02-28 16:04:00,34.9,32.0,29.53,NE,45,0.0,0.0,89,0.00,,,0.28,Wunderground v.1.15,2013-02-28 21:04:00,
2013-02-28 16:14:00,35.0,31.8,29.53,NE,45,0.0,0.0,88,0.00,,,0.28,Wunderground v.1.15,2013-02-28 21:14:00,
2013-02-28 16:19:00,35.0,31.8,29.53,NE,45,0.0,0.0,88,0.00,,,0.28,Wunderground v.1.15,2013-02-28 21:19:00,
2013-02-28 16:29:00,35.2,31.7,29.53,NE,45,0.0,0.0,87,0.00,,,0.28,Wunderground v.1.15,2013-02-28 21:29:00,
2013-02-28 16:39:00,35.5,31.7,29.53,NE,45,0.0,0.0,86,0.00,,,0.28,Wunderground v.1.15,2013-02-28 21:39:00,
2013-02-28 16:44:00,35.5,31.7,29.53,NE,45,0.0,0.0,86,0.00,,,0.28,Wunderground v.1.15,2013-02-28 21:44:00,
2013-02-28 16:54:00,35.5,31.4,29.54,North,355,0.0,0.0,85,0.00,,,0.28,Wunderground v.1.15,2013-02-28 21:54:00,
2013-02-28 17:04:00,35.2,30.9,29.55,NE,34,0.0,0.0,84,0.00,,,0.28,Wunderground v.1.15,2013-02-28 22:04:00,
2013-02-28 17:14:00,35.0,30.9,29.55,NE,34,0.0,0.0,85,0.00,,,0.28,Wunderground v.1.15,2013-02-28 22:14:00,
2013-02-28 17:24:00,35.0,30.9,29.55,NE,34,0.0,0.0,85,0.00,,,0.28,Wunderground v.1.15,2013-02-28 22:24:00,
2013-02-28 17:34:00,34.9,30.8,29.56,NE,34,0.0,0.0,85,0.00,,,0.28,Wunderground v.1.15,2013-02-28 22:34:00,
2013-02-28 17:44:00,34.7,30.9,29.56,NE,34,0.0,0.0,86,0.00,,,0.28,Wunderground v.1.15,2013-02-28 22:44:00,
2013-02-28 17:49:00,34.7,30.9,29.56,NE,34,0.0,0.0,86,0.00,,,0.28,Wunderground v.1.15,2013-02-28 22:49:00,
2013-02-28 17:59:00,34.6,30.8,29.56,NE,34,0.0,0.0,86,0.00,,,0.28,Wunderground v.1.15,2013-02-28 22:59:00,
2013-02-28 18:04:00,34.4,30.6,29.57,NE,36,0.0,0.0,86,0.00,,,0.28,Wunderground v.1.15,2013-02-28 23:04:00,
2013-02-28 18:14:00,34.3,30.8,29.57,NE,36,0.0,0.0,87,0.00,,,0.28,Wunderground v.1.15,2013-02-28 23:14:00,
2013-02-28 18:24:00,34.1,30.9,29.57,NE,36,0.0,0.0,88,0.00,,,0.28,Wunderground v.1.15,2013-02-28 23:24:00,
2013-02-28 18:34:00,34.0,30.8,29.58,NE,36,0.0,0.0,88,0.00,,,0.28,Wunderground v.1.15,2013-02-28 23:34:00,
2013-02-28 18:44:00,34.0,30.8,29.58,NE,36,0.0,0.0,88,0.00,,,0.28,Wunderground v.1.15,2013-02-28 23:44:00,
2013-02-28 18:54:00,33.8,30.6,29.58,NE,42,0.0,0.0,88,0.00,,,0.28,Wunderground v.1.15,2013-02-28 23:54:00,
2013-02-28 19:04:00,33.7,30.5,29.58,NE,42,0.0,0.0,88,0.00,,,0.28,Wunderground v.1.15,2013-03-01 00:04:00,
2013-02-28 19:14:00,33.5,30.6,29.58,NE,42,0.0,0.0,89,0.00,,,0.28,Wunderground v.1.15,2013-03-01 00:14:00,
2013-02-28 19:24:00,33.5,30.6,29.59,NE,42,0.0,0.0,89,0.00,,,0.28,Wunderground v.1.15,2013-03-01 00:24:00,
2013-02-28 19:29:00,33.4,30.5,29.59,NE,42,0.0,0.0,89,0.00,,,0.28,Wunderground v.1.15,2013-03-01 00:29:00,
2013-02-28 19:39:00,33.4,30.5,29.59,NE,42,0.0,0.0,89,0.00,,,0.28,Wunderground v.1.15,2013-03-01 00:39:00,
2013-02-28 19:49:00,33.2,30.6,29.59,NE,42,0.0,0.0,90,0.00,,,0.28,Wunderground v.1.15,2013-03-01 00:49:00,
2013-02-28 19:59:00,33.2,30.6,29.59,NE,42,0.0,0.0,90,0.00,,,0.28,Wunderground v.1.15,2013-03-01 00:59:00,
2013-02-28 20:04:00,33.2,30.9,29.59,NE,42,0.0,0.0,91,0.00,,,0.28,Wunderground v.1.15,2013-03-01 01:04:00,
2013-02-28 20:14:00,33.2,30.9,29.59,NE,42,0.0,0.0,91,0.00,,,0.28,Wunderground v.1.15,2013-03-01 01:14:00,
2013-02-28 20:24:00,33.2,31.1,29.60,NE,40,0.0,0.0,92,0.00,,,0.28,Wunderground v.1.15,2013-03-01 01:24:00,
2013-02-28 20:34:00,32.9,30.8,29.60,NE,39,0.0,0.0,92,0.00,,,0.28,Wunderground v.1.15,2013-03-01 01:34:00,
2013-02-28 20:44:00,32.8,30.7,29.60,NE,39,0.0,0.0,92,0.00,,,0.28,Wunderground v.1.15,2013-03-01 01:44:00,
2013-02-28 20:54:00,32.5,30.7,29.60,NE,38,0.0,0.0,93,0.00,,,0.28,Wunderground v.1.15,2013-03-01 01:54:00,
2013-02-28 20:59:00,32.5,31.0,29.60,NE,38,0.0,0.0,94,0.00,,,0.28,Wunderground v.1.15,2013-03-01 01:59:00,
2013-02-28 21:04:00,32.4,30.9,29.61,NE,38,0.0,0.0,94,0.00,,,0.28,Wunderground v.1.15,2013-03-01 02:04:00,
2013-02-28 21:14:00,32.1,30.6,29.61,NE,41,0.0,0.0,94,0.00,,,0.28,Wunderground v.1.15,2013-03-01 02:14:00,
2013-02-28 21:19:00,32.1,30.6,29.61,NE,40,0.0,0.0,94,0.00,,,0.28,Wunderground v.1.15,2013-03-01 02:19:00,
2013-02-28 21:29:00,31.9,30.6,29.61,NE,40,0.0,0.0,95,0.00,,,0.28,Wunderground v.1.15,2013-03-01 02:29:00,
2013-02-28 21:39:00,31.9,30.6,29.62,NE,36,0.0,0.0,95,0.00,,,0.28,Wunderground v.1.15,2013-03-01 02:39:00,
2013-02-28 21:44:00,31.9,30.6,29.62,NE,40,0.0,0.0,95,0.00,,,0.28,Wunderground v.1.15,2013-03-01 02:44:00,
2013-02-28 21:54:00,31.9,30.6,29.62,North,9,0.0,0.0,95,0.00,,,0.28,Wunderground v.1.15,2013-03-01 02:54:00,
2013-02-28 22:04:00,32.1,31.1,29.62,North,5,0.0,0.0,96,0.00,,,0.28,Wunderground v.1.15,2013-03-01 03:04:00,
2013-02-28 22:14:00,32.1,31.1,29.62,North,5,0.0,0.0,96,0.00,,,0.28,Wunderground v.1.15,2013-03-01 03:14:00,
2013-02-28 22:24:00,32.1,31.1,29.62,NNE,23,0.0,0.0,96,0.00,,,0.28,Wunderground v.1.15,2013-03-01 03:24:00,
2013-02-28 22:34:00,32.1,31.1,29.62,NW,319,0.0,0.0,96,0.00,,,0.28,Wunderground v.1.15,2013-03-01 03:34:00,
2013-02-28 22:44:00,32.1,31.1,29.62,NNW,344,0.0,0.0,96,0.00,,,0.28,Wunderground v.1.15,2013-03-01 03:44:00,
2013-02-28 22:49:00,32.1,31.1,29.61,NNW,335,0.0,0.0,96,0.00,,,0.28,Wunderground v.1.15,2013-03-01 03:49:00,
2013-02-28 22:59:00,31.9,30.9,29.61,NNE,33,0.0,0.0,96,0.00,,,0.28,Wunderground v.1.15,2013-03-01 03:59:00,
2013-02-28 23:04:00,31.9,31.1,29.62,NE,44,0.0,0.0,97,0.00,,,0.28,Wunderground v.1.15,2013-03-01 04:04:00,
2013-02-28 23:14:00,31.9,31.1,29.62,NE,49,0.0,0.0,97,0.00,,,0.28,Wunderground v.1.15,2013-03-01 04:14:00,
2013-02-28 23:24:00,31.9,31.1,29.62,NNE,27,0.0,0.0,97,0.00,,,0.28,Wunderground v.1.15,2013-03-01 04:24:00,
2013-02-28 23:29:00,31.9,31.1,29.62,NNE,24,0.0,0.0,97,0.00,,,0.28,Wunderground v.1.15,2013-03-01 04:29:00,
2013-02-28 23:39:00,31.8,31.0,29.63,NE,45,0.0,0.0,97,0.00,,,0.00,Wunderground v.1.15,2013-03-01 04:39:00,
2013-02-28 23:49:00,31.3,30.5,29.62,NNE,32,0.0,0.0,97,0.00,,,0.00,Wunderground v.1.15,2013-03-01 04:49:00,
2013-02-28 23:54:00,31.3,30.5,29.62,NE,38,0.0,0.0,97,0.00,,,0.00,Wunderground v.1.15,2013-03-01 04:54:00,